createdAt,value
2022-10-31T00:00:55.968Z,6.55
2022-10-31T00:03:23.130Z,7.05
2022-10-31T00:05:50.324Z,7.10
2022-10-31T00:08:17.399Z,7.78
2022-10-31T00:10:44.470Z,9.27
2022-10-31T00:13:11.607Z,6.15
2022-10-31T00:15:38.801Z,7.30
2022-10-31T00:18:05.922Z,7.90
2022-10-31T00:20:32.996Z,6.13
2022-10-31T00:23:00.110Z,7.68
2022-10-31T00:25:27.191Z,6.03
2022-10-31T00:27:54.303Z,5.88
2022-10-31T00:30:21.520Z,7.45
2022-10-31T00:32:48.599Z,5.90
2022-10-31T00:35:16.045Z,7.47
2022-10-31T00:37:43.175Z,5.93
2022-10-31T00:40:10.244Z,7.60
2022-10-31T00:42:38.301Z,8.00
2022-10-31T00:45:05.374Z,6.28
2022-10-31T00:47:32.441Z,6.22
2022-10-31T00:49:59.543Z,8.38
2022-10-31T00:52:26.615Z,6.75
2022-10-31T00:54:53.690Z,6.65
2022-10-31T00:57:20.804Z,5.97
2022-10-31T00:59:47.953Z,6.63
2022-10-31T01:02:15.119Z,8.02
2022-10-31T01:04:42.330Z,8.23
2022-10-31T01:07:09.403Z,6.75
2022-10-31T01:09:36.513Z,6.22
2022-10-31T01:12:03.595Z,8.30
2022-10-31T01:14:30.698Z,5.55
2022-10-31T01:16:57.792Z,8.40
2022-10-31T01:19:24.859Z,6.30
2022-10-31T01:21:51.917Z,5.88
2022-10-31T01:24:18.989Z,6.97
2022-10-31T01:26:46.066Z,7.72
2022-10-31T01:29:13.134Z,5.70
2022-10-31T01:31:40.188Z,6.25
2022-10-31T01:34:07.689Z,7.07
2022-10-31T01:36:34.895Z,7.53
2022-10-31T01:39:01.967Z,6.30
2022-10-31T01:41:29.045Z,6.10
2022-10-31T01:43:57.530Z,6.05
2022-10-31T01:46:24.763Z,6.45
2022-10-31T01:48:51.863Z,5.35
2022-10-31T01:51:18.924Z,6.78
2022-10-31T01:53:46.172Z,7.07
2022-10-31T01:56:13.233Z,5.13
2022-10-31T01:58:40.296Z,6.50
2022-10-31T02:01:08.210Z,6.68
2022-10-31T02:03:35.505Z,6.47
2022-10-31T02:06:02.616Z,6.15
2022-10-31T02:08:29.751Z,6.32
2022-10-31T02:10:56.862Z,6.25
2022-10-31T02:16:11.267Z,8.10
2022-10-31T02:18:38.339Z,5.78
2022-10-31T02:21:05.419Z,5.35
2022-10-31T02:23:32.511Z,6.38
2022-10-31T02:25:59.591Z,6.32
2022-10-31T02:28:26.709Z,5.07
2022-10-31T02:30:53.825Z,5.78
2022-10-31T02:33:20.916Z,5.40
2022-10-31T02:35:47.980Z,5.18
2022-10-31T02:38:15.045Z,5.65
2022-10-31T02:40:42.151Z,6.57
2022-10-31T02:43:09.277Z,5.85
2022-10-31T02:45:36.386Z,6.65
2022-10-31T02:48:03.465Z,5.25
2022-10-31T02:50:30.646Z,7.38
2022-10-31T02:52:57.741Z,5.90
2022-10-31T02:55:24.814Z,5.75
2022-10-31T02:57:51.937Z,6.05
2022-10-31T03:00:19.037Z,5.97
2022-10-31T03:02:46.172Z,7.00
2022-10-31T03:05:13.431Z,6.50
2022-10-31T03:07:40.542Z,5.15
2022-10-31T03:10:07.605Z,5.88
2022-10-31T03:12:34.942Z,7.32
2022-10-31T03:15:02.036Z,5.57
2022-10-31T03:17:29.152Z,6.30
2022-10-31T03:19:56.248Z,6.53
2022-10-31T03:22:23.321Z,8.88
2022-10-31T03:24:50.450Z,6.55
2022-10-31T03:27:17.533Z,4.95
2022-10-31T03:29:44.589Z,6.47
2022-10-31T03:32:11.682Z,7.10
2022-10-31T03:34:38.772Z,6.95
2022-10-31T03:37:05.851Z,7.43
2022-10-31T03:39:32.919Z,5.22
2022-10-31T03:42:00.009Z,6.25
2022-10-31T03:44:27.077Z,7.28
2022-10-31T03:46:54.181Z,7.18
2022-10-31T03:49:21.257Z,7.05
2022-10-31T03:51:49.833Z,6.72
2022-10-31T03:54:16.897Z,8.80
2022-10-31T03:56:43.965Z,7.30
2022-10-31T03:59:11.040Z,6.85
2022-10-31T04:01:38.227Z,6.95
2022-10-31T04:04:05.418Z,6.82
2022-10-31T04:06:32.519Z,7.30
2022-10-31T04:08:59.626Z,8.00
2022-10-31T04:11:26.705Z,5.80
2022-10-31T04:13:53.783Z,7.80
2022-10-31T04:16:20.860Z,7.25
2022-10-31T04:18:47.988Z,7.43
2022-10-31T04:21:15.053Z,5.60
2022-10-31T04:23:42.175Z,7.70
2022-10-31T04:26:09.335Z,6.85
2022-10-31T04:28:36.405Z,8.13
2022-10-31T04:31:03.470Z,5.93
2022-10-31T04:33:30.567Z,6.03
2022-10-31T04:35:57.650Z,6.45
2022-10-31T04:38:24.730Z,7.55
2022-10-31T04:40:51.918Z,6.78
2022-10-31T04:45:47.082Z,6.93
2022-10-31T04:48:14.151Z,7.53
2022-10-31T04:50:41.246Z,8.18
2022-10-31T04:53:08.364Z,6.70
2022-10-31T04:55:35.438Z,7.20
2022-10-31T04:58:03.018Z,6.82
2022-10-31T05:00:30.367Z,7.38
2022-10-31T05:02:57.783Z,7.10
2022-10-31T05:05:25.078Z,7.88
2022-10-31T05:07:52.197Z,8.07
2022-10-31T05:10:19.487Z,7.25
2022-10-31T05:12:47.026Z,5.53
2022-10-31T05:15:14.258Z,7.78
2022-10-31T05:17:41.332Z,8.80
2022-10-31T05:20:08.451Z,7.40
2022-10-31T05:22:35.528Z,6.20
2022-10-31T05:25:02.623Z,7.57
2022-10-31T05:27:29.790Z,5.90
2022-10-31T05:29:56.943Z,6.68
2022-10-31T05:32:24.034Z,5.78
2022-10-31T05:34:51.149Z,6.50
2022-10-31T05:37:18.228Z,6.43
2022-10-31T05:39:45.347Z,5.65
2022-10-31T05:42:12.509Z,7.40
2022-10-31T05:44:39.583Z,8.25
2022-10-31T05:47:06.659Z,6.28
2022-10-31T05:49:33.748Z,8.18
2022-10-31T05:52:00.830Z,6.35
2022-10-31T05:54:27.885Z,6.40
2022-10-31T05:56:55.047Z,5.60
2022-10-31T05:59:22.161Z,7.95
2022-10-31T06:04:37.723Z,7.40
2022-10-31T06:07:04.830Z,6.97
2022-10-31T06:09:31.929Z,5.57
2022-10-31T06:11:58.993Z,5.32
2022-10-31T06:14:26.112Z,7.00
2022-10-31T06:16:53.364Z,5.85
2022-10-31T06:19:20.578Z,5.53
2022-10-31T06:21:47.668Z,5.75
2022-10-31T06:24:15.940Z,7.13
2022-10-31T06:26:43.175Z,6.75
2022-10-31T06:29:10.239Z,5.83
2022-10-31T06:31:37.354Z,5.32
2022-10-31T06:34:04.428Z,5.50
2022-10-31T06:36:31.496Z,6.28
2022-10-31T06:38:58.576Z,6.10
2022-10-31T06:41:25.643Z,5.78
2022-10-31T06:43:52.763Z,6.82
2022-10-31T06:46:19.823Z,7.85
2022-10-31T06:48:46.937Z,5.88
2022-10-31T06:51:14.001Z,8.55
2022-10-31T06:53:41.067Z,6.78
2022-10-31T06:56:08.136Z,6.60
2022-10-31T06:58:35.194Z,6.20
2022-10-31T07:01:02.384Z,6.53
2022-10-31T07:03:29.522Z,6.38
2022-10-31T07:05:57.355Z,6.93
2022-10-31T07:08:24.445Z,7.15
2022-10-31T07:10:51.513Z,8.05
2022-10-31T07:13:18.792Z,7.60
2022-10-31T07:15:45.921Z,6.63
2022-10-31T07:18:13.263Z,6.22
2022-10-31T07:20:40.369Z,7.43
2022-10-31T07:23:07.472Z,7.93
2022-10-31T07:25:34.530Z,7.60
2022-10-31T07:28:02.141Z,6.05
2022-10-31T07:30:29.460Z,7.10
2022-10-31T07:32:56.542Z,8.20
2022-10-31T07:35:23.620Z,6.30
2022-10-31T07:37:50.687Z,7.40
2022-10-31T07:40:17.755Z,5.32
2022-10-31T07:42:44.835Z,9.30
2022-10-31T07:45:11.921Z,6.60
2022-10-31T07:47:38.993Z,6.75
2022-10-31T07:50:06.073Z,7.78
2022-10-31T07:52:33.150Z,7.50
2022-10-31T07:55:00.230Z,9.07
2022-10-31T07:57:31.904Z,6.25
2022-10-31T08:00:01.438Z,6.05
2022-10-31T08:02:28.559Z,6.22
2022-10-31T08:04:58.673Z,6.90
2022-10-31T08:07:28.437Z,7.28
2022-10-31T08:09:55.547Z,9.73
2022-10-31T08:12:22.648Z,6.22
2022-10-31T08:14:50.925Z,7.65
2022-10-31T08:17:17.997Z,7.22
2022-10-31T08:19:45.070Z,8.82
2022-10-31T08:22:12.170Z,6.05
2022-10-31T08:27:26.239Z,8.57
2022-10-31T08:29:53.318Z,8.60
2022-10-31T08:32:20.386Z,9.73
2022-10-31T08:34:47.467Z,7.32
2022-10-31T08:37:19.722Z,8.20
2022-10-31T08:39:46.814Z,8.05
2022-10-31T08:42:13.918Z,8.05
2022-10-31T08:44:40.989Z,7.05
2022-10-31T08:47:08.173Z,11.07
2022-10-31T08:49:35.266Z,19.42
2022-10-31T08:52:02.406Z,35.13
2022-10-31T08:54:29.808Z,8.77
2022-10-31T08:56:56.887Z,9.20
2022-10-31T08:59:23.971Z,8.90
2022-10-31T09:01:51.157Z,11.52
2022-10-31T09:04:18.315Z,12.88
2022-10-31T09:07:07.852Z,9.18
2022-10-31T09:09:32.471Z,12.77
2022-10-31T09:11:59.965Z,7.55
2022-10-31T09:14:27.683Z,15.70
2022-10-31T09:16:54.762Z,11.48
2022-10-31T09:19:21.842Z,11.20
2022-10-31T09:21:48.953Z,11.57
2022-10-31T09:24:16.123Z,13.02
2022-10-31T09:26:43.235Z,13.70
2022-10-31T09:29:10.519Z,16.60
2022-10-31T09:31:42.223Z,11.15
2022-10-31T09:34:11.760Z,11.75
2022-10-31T09:36:38.888Z,18.15
2022-10-31T09:39:06.050Z,14.68
2022-10-31T09:41:33.152Z,13.13
2022-10-31T09:44:00.235Z,15.60
2022-10-31T09:46:27.296Z,13.32
2022-10-31T09:48:54.375Z,14.82
2022-10-31T09:51:21.462Z,16.73
2022-10-31T09:53:48.597Z,18.23
2022-10-31T09:56:15.796Z,14.63
2022-10-31T09:58:42.939Z,17.10
2022-10-31T10:01:10.144Z,18.45
2022-10-31T10:03:37.300Z,18.83
2022-10-31T10:06:04.389Z,17.23
2022-10-31T10:08:31.462Z,27.77
2022-10-31T10:10:58.549Z,21.50
2022-10-31T10:13:25.659Z,17.73
2022-10-31T10:15:52.748Z,21.25
2022-10-31T10:18:19.872Z,15.77
2022-10-31T10:20:46.941Z,32.53
2022-10-31T10:23:14.031Z,23.40
2022-10-31T10:25:41.266Z,17.20
2022-10-31T10:28:08.405Z,50.47
2022-10-31T10:30:35.492Z,49.90
2022-10-31T10:33:02.554Z,32.42
2022-10-31T10:35:29.720Z,43.80
2022-10-31T10:37:56.980Z,34.67
2022-10-31T10:40:24.230Z,32.35
2022-10-31T10:43:09.919Z,31.17
2022-10-31T10:45:55.942Z,32.05
2022-10-31T10:48:23.025Z,24.90
2022-10-31T10:50:50.302Z,23.48
2022-10-31T10:53:22.280Z,22.30
2022-10-31T10:55:49.401Z,24.45
2022-10-31T10:58:17.217Z,24.48
2022-10-31T11:00:45.040Z,30.65
2022-10-31T11:03:12.262Z,25.58
2022-10-31T11:05:39.446Z,28.77
2022-10-31T11:08:06.585Z,24.52
2022-10-31T11:10:34.384Z,33.80
2022-10-31T11:13:01.631Z,22.67
2022-10-31T11:15:29.007Z,30.92
2022-10-31T11:17:56.109Z,20.08
2022-10-31T11:20:23.339Z,21.45
2022-10-31T11:22:50.521Z,27.08
2022-10-31T11:25:17.623Z,22.20
2022-10-31T11:27:44.690Z,18.10
2022-10-31T11:30:11.766Z,23.58
2022-10-31T11:32:38.909Z,21.05
2022-10-31T11:35:05.994Z,20.83
2022-10-31T11:37:33.080Z,22.00
2022-10-31T11:40:00.180Z,24.40
2022-10-31T11:42:27.277Z,21.77
2022-10-31T11:44:54.369Z,23.35
2022-10-31T11:47:21.444Z,21.83
2022-10-31T11:49:50.537Z,21.52
2022-10-31T11:52:17.755Z,19.95
2022-10-31T11:54:44.936Z,19.90
2022-10-31T11:57:12.030Z,16.95
2022-10-31T11:59:39.096Z,21.50
2022-10-31T12:02:06.311Z,16.02
2022-10-31T12:04:33.452Z,23.58
2022-10-31T12:07:00.778Z,17.73
2022-10-31T12:09:27.852Z,18.67
2022-10-31T12:11:54.991Z,17.55
2022-10-31T12:14:22.089Z,17.75
2022-10-31T12:16:49.156Z,22.45
2022-10-31T12:19:16.244Z,27.67
2022-10-31T12:21:43.364Z,29.67
2022-10-31T12:24:10.450Z,28.35
2022-10-31T12:26:37.540Z,26.67
2022-10-31T12:29:04.692Z,24.38
2022-10-31T12:31:31.854Z,33.25
2022-10-31T12:33:58.929Z,25.83
2022-10-31T12:36:26.036Z,23.52
2022-10-31T12:38:53.478Z,21.48
2022-10-31T12:41:20.606Z,26.45
2022-10-31T12:43:47.994Z,22.98
2022-10-31T12:46:15.076Z,23.42
2022-10-31T12:48:42.187Z,24.23
2022-10-31T12:51:09.308Z,19.00
2022-10-31T12:53:36.388Z,25.63
2022-10-31T12:56:03.496Z,21.30
2022-10-31T12:58:30.644Z,26.90
2022-10-31T13:00:57.925Z,19.30
2022-10-31T13:03:25.091Z,21.95
2022-10-31T13:05:52.163Z,22.83
2022-10-31T13:08:19.294Z,21.30
2022-10-31T13:10:46.448Z,25.05
2022-10-31T13:13:13.869Z,17.45
2022-10-31T13:15:40.955Z,14.70
2022-10-31T13:18:08.088Z,14.68
2022-10-31T13:20:35.297Z,18.48
2022-10-31T13:23:02.682Z,20.80
2022-10-31T13:25:30.064Z,20.85
2022-10-31T13:27:57.172Z,25.13
2022-10-31T13:30:24.319Z,13.00
2022-10-31T13:32:51.423Z,16.08
2022-10-31T13:35:18.556Z,17.52
2022-10-31T13:37:46.159Z,10.63
2022-10-31T13:40:16.145Z,15.15
2022-10-31T13:42:43.226Z,16.02
2022-10-31T13:45:10.362Z,18.67
2022-10-31T13:47:37.454Z,13.95
2022-10-31T13:50:05.006Z,14.23
2022-10-31T13:52:32.133Z,17.13
2022-10-31T13:54:59.250Z,18.00
2022-10-31T13:57:29.022Z,15.40
2022-10-31T14:00:00.253Z,11.55
2022-10-31T14:02:27.760Z,18.30
2022-10-31T14:07:41.990Z,15.75
2022-10-31T14:10:09.176Z,13.38
2022-10-31T14:12:36.275Z,11.25
2022-10-31T14:15:03.350Z,13.48
2022-10-31T14:17:33.802Z,15.18
2022-10-31T14:20:00.970Z,14.57
2022-10-31T14:22:28.098Z,17.40
2022-10-31T14:24:55.171Z,14.27
2022-10-31T14:27:22.369Z,16.15
2022-10-31T14:29:50.785Z,11.35
2022-10-31T14:32:19.180Z,13.43
2022-10-31T14:34:46.411Z,13.32
2022-10-31T14:37:13.474Z,18.92
2022-10-31T14:39:40.596Z,15.05
2022-10-31T14:42:08.304Z,15.65
2022-10-31T14:44:35.386Z,14.02
2022-10-31T14:47:02.482Z,13.10
2022-10-31T14:49:29.586Z,13.52
2022-10-31T14:51:56.698Z,8.73
2022-10-31T14:54:23.781Z,12.40
2022-10-31T14:56:50.931Z,10.10
2022-10-31T14:59:18.001Z,12.13
2022-10-31T15:01:45.171Z,12.65
2022-10-31T15:04:27.656Z,12.27
2022-10-31T15:06:54.738Z,14.50
2022-10-31T15:09:21.814Z,11.00
2022-10-31T15:11:48.891Z,16.17
2022-10-31T15:14:15.985Z,19.92
2022-10-31T15:16:43.063Z,17.75
2022-10-31T15:19:10.176Z,17.15
2022-10-31T15:21:37.244Z,11.88
2022-10-31T15:24:04.461Z,19.27
2022-10-31T15:26:31.601Z,20.23
2022-10-31T15:28:59.914Z,16.73
2022-10-31T15:31:27.014Z,16.83
2022-10-31T15:33:54.102Z,18.25
2022-10-31T15:36:24.033Z,21.52
2022-10-31T15:38:54.956Z,16.50
2022-10-31T15:41:22.880Z,14.27
2022-10-31T15:43:50.033Z,16.15
2022-10-31T15:46:17.138Z,14.18
2022-10-31T15:48:44.212Z,12.30
2022-10-31T15:51:11.291Z,17.65
2022-10-31T15:53:38.410Z,15.73
2022-10-31T15:56:05.629Z,15.25
2022-10-31T15:58:32.695Z,15.30
2022-10-31T16:00:59.929Z,14.18
2022-10-31T16:03:27.093Z,15.27
2022-10-31T16:05:54.247Z,19.27
2022-10-31T16:08:21.349Z,16.92
2022-10-31T16:10:48.449Z,16.80
2022-10-31T16:13:15.576Z,17.23
2022-10-31T16:15:42.649Z,15.52
2022-10-31T16:18:09.730Z,15.38
2022-10-31T16:20:37.878Z,18.55
2022-10-31T16:23:05.027Z,25.08
2022-10-31T16:25:32.218Z,22.48
2022-10-31T16:27:59.302Z,19.40
2022-10-31T16:30:26.393Z,24.33
2022-10-31T16:32:54.442Z,26.70
2022-10-31T16:35:21.571Z,24.60
2022-10-31T16:37:48.714Z,21.17
2022-10-31T16:40:15.804Z,19.90
2022-10-31T16:42:42.984Z,25.88
2022-10-31T16:45:10.206Z,24.60
2022-10-31T16:47:37.422Z,21.88
2022-10-31T16:50:04.573Z,25.83
2022-10-31T16:52:38.056Z,23.42
2022-10-31T16:55:15.012Z,23.45
2022-10-31T16:57:42.080Z,25.65
2022-10-31T17:00:09.222Z,25.00
2022-10-31T17:02:36.363Z,21.98
2022-10-31T17:05:03.497Z,22.98
2022-10-31T17:07:30.700Z,23.25
2022-10-31T17:09:57.793Z,22.77
2022-10-31T17:12:25.174Z,24.92
2022-10-31T17:14:52.316Z,21.80
2022-10-31T17:17:19.400Z,27.50
2022-10-31T17:19:46.489Z,25.02
2022-10-31T17:22:13.608Z,26.35
2022-10-31T17:24:40.757Z,24.35
2022-10-31T17:27:07.850Z,24.70
2022-10-31T17:29:35.410Z,23.20
2022-10-31T17:32:04.106Z,26.80
2022-10-31T17:34:31.241Z,23.27
2022-10-31T17:36:58.869Z,20.88
2022-10-31T17:39:26.140Z,23.52
2022-10-31T17:41:53.234Z,22.67
2022-10-31T17:44:20.382Z,22.23
2022-10-31T17:46:47.464Z,20.80
2022-10-31T17:49:14.609Z,20.70
2022-10-31T17:51:41.700Z,23.23
2022-10-31T17:54:10.191Z,21.15
2022-10-31T17:56:37.294Z,21.42
2022-10-31T18:01:51.567Z,27.52
2022-10-31T18:04:18.885Z,24.65
2022-10-31T18:06:47.851Z,28.77
2022-10-31T18:09:14.952Z,22.60
2022-10-31T18:11:42.072Z,26.08
2022-10-31T18:14:09.162Z,25.00
2022-10-31T18:19:23.244Z,23.70
2022-10-31T18:21:50.628Z,24.48
2022-10-31T18:24:17.725Z,20.48
2022-10-31T18:26:44.868Z,21.67
2022-10-31T18:29:11.979Z,21.92
2022-10-31T18:31:39.070Z,20.00
2022-10-31T18:34:06.150Z,19.95
2022-10-31T18:36:33.218Z,19.33
2022-10-31T18:39:00.315Z,23.50
2022-10-31T18:41:27.408Z,20.38
2022-10-31T18:43:56.262Z,23.20
2022-10-31T18:46:23.369Z,18.15
2022-10-31T18:48:50.621Z,19.33
2022-10-31T18:51:18.493Z,20.08
2022-10-31T18:53:45.790Z,17.17
2022-10-31T18:56:12.860Z,18.40
2022-10-31T18:58:39.957Z,20.52
2022-10-31T19:01:07.570Z,18.13
2022-10-31T19:03:34.798Z,22.25
2022-10-31T19:06:01.886Z,17.00
2022-10-31T19:11:15.978Z,22.50
2022-10-31T19:13:43.929Z,20.02
2022-10-31T19:16:11.026Z,19.90
2022-10-31T19:18:38.194Z,19.40
2022-10-31T19:21:05.275Z,21.20
2022-10-31T19:23:32.446Z,22.48
2022-10-31T19:26:00.241Z,23.48
2022-10-31T19:28:27.364Z,20.80
2022-10-31T19:30:54.541Z,21.58
2022-10-31T19:33:21.600Z,18.00
2022-10-31T19:35:48.710Z,22.33
2022-10-31T19:38:15.793Z,19.95
2022-10-31T19:40:42.886Z,21.73
2022-10-31T19:43:09.956Z,16.98
2022-10-31T19:45:37.063Z,19.90
2022-10-31T19:48:04.420Z,16.25
2022-10-31T19:50:31.765Z,20.77
2022-10-31T19:52:58.845Z,17.45
2022-10-31T19:55:25.915Z,19.45
2022-10-31T19:58:08.397Z,17.05
2022-10-31T20:00:35.519Z,18.70
2022-10-31T20:03:03.116Z,20.85
2022-10-31T20:05:30.565Z,20.52
2022-10-31T20:07:57.700Z,18.17
2022-10-31T20:10:25.308Z,18.92
2022-10-31T20:12:52.380Z,19.05
2022-10-31T20:15:19.459Z,16.98
2022-10-31T20:17:46.593Z,22.85
2022-10-31T20:20:13.708Z,21.58
2022-10-31T20:22:40.837Z,20.10
2022-10-31T20:25:07.929Z,17.27
2022-10-31T20:27:35.077Z,16.23
2022-10-31T20:30:02.178Z,19.27
2022-10-31T20:32:29.274Z,17.75
2022-10-31T20:34:56.360Z,21.40
2022-10-31T20:37:23.445Z,20.27
2022-10-31T20:39:52.717Z,19.70
2022-10-31T20:42:23.910Z,18.88
2022-10-31T20:44:51.006Z,16.80
2022-10-31T20:47:20.666Z,18.05
2022-10-31T20:49:50.851Z,18.83
2022-10-31T20:52:17.954Z,16.15
2022-10-31T20:54:45.033Z,16.08
2022-10-31T20:57:12.163Z,16.58
2022-10-31T20:59:39.269Z,16.30
2022-10-31T21:02:06.494Z,16.95
2022-10-31T21:04:33.737Z,18.23
2022-10-31T21:07:00.821Z,17.95
2022-10-31T21:09:27.933Z,15.48
2022-10-31T21:11:55.068Z,18.40
2022-10-31T21:14:22.128Z,17.30
2022-10-31T21:16:49.212Z,16.55
2022-10-31T21:19:16.292Z,18.60
2022-10-31T21:21:43.390Z,18.13
2022-10-31T21:24:10.507Z,19.35
2022-10-31T21:26:37.854Z,18.10
2022-10-31T21:29:04.935Z,19.67
2022-10-31T21:31:32.058Z,16.92
2022-10-31T21:33:59.142Z,20.30
2022-10-31T21:36:26.342Z,18.63
2022-10-31T21:38:53.454Z,18.00
2022-10-31T21:41:20.525Z,18.90
2022-10-31T21:43:47.672Z,18.77
2022-10-31T21:46:14.738Z,17.38
2022-10-31T21:48:42.895Z,19.85
2022-10-31T21:51:10.034Z,15.95
2022-10-31T21:53:55.886Z,19.17
2022-10-31T21:56:23.030Z,17.80
2022-10-31T21:58:50.194Z,16.33
2022-10-31T22:01:17.381Z,17.13
2022-10-31T22:03:44.626Z,17.15
2022-10-31T22:06:11.749Z,17.83
2022-10-31T22:08:39.775Z,18.00
2022-10-31T22:11:06.863Z,17.02
2022-10-31T22:13:33.929Z,16.35
2022-10-31T22:16:01.452Z,16.20
2022-10-31T22:18:28.569Z,16.23
2022-10-31T22:20:55.672Z,17.85
2022-10-31T22:23:22.744Z,18.17
2022-10-31T22:25:49.951Z,17.13
2022-10-31T22:28:17.042Z,19.58
2022-10-31T22:30:44.106Z,16.17
2022-10-31T22:33:11.171Z,16.25
2022-10-31T22:35:38.540Z,19.45
2022-10-31T22:38:06.441Z,17.98
2022-10-31T22:40:33.514Z,19.98
2022-10-31T22:43:00.919Z,19.15
2022-10-31T22:45:28.225Z,15.77
2022-10-31T22:47:55.293Z,16.77
2022-10-31T22:50:22.357Z,16.52
2022-10-31T22:52:49.417Z,18.98
2022-10-31T22:55:17.347Z,19.30
2022-10-31T22:57:44.426Z,17.90
2022-10-31T23:00:11.520Z,16.77
2022-10-31T23:02:38.645Z,18.10
2022-10-31T23:05:05.733Z,16.55
2022-10-31T23:07:33.184Z,17.25
2022-10-31T23:10:00.408Z,16.23
2022-10-31T23:12:46.292Z,15.60
2022-10-31T23:15:13.378Z,19.30
2022-10-31T23:17:40.616Z,17.90
2022-10-31T23:20:07.882Z,16.15
2022-10-31T23:22:34.940Z,17.10
2022-10-31T23:25:02.717Z,16.38
2022-10-31T23:27:29.817Z,15.68
2022-10-31T23:29:56.880Z,15.63
2022-10-31T23:32:25.036Z,18.75
2022-10-31T23:34:52.128Z,17.42
2022-10-31T23:37:19.308Z,17.70
2022-10-31T23:39:46.384Z,18.33
2022-10-31T23:42:13.907Z,16.67
2022-10-31T23:44:41.020Z,15.98
2022-10-31T23:47:08.085Z,16.02
2022-10-31T23:49:35.167Z,15.18
2022-10-31T23:52:02.294Z,16.02
2022-10-31T23:54:29.361Z,14.80
2022-10-31T23:56:56.504Z,14.65
2022-10-31T23:59:23.569Z,15.40
